Time;durP1;ratioP1;P1;durP2;ratioP2;P2;SDS_P1;SDS_P2;PMS_P1;PMS_P2;Temp;Humidity;BMP_temperature;BMP_pressure;BME280_temperature;BME280_humidity;BME280_pressure;Samples;Min_cycle;Max_cycle;Signal;HPM_P1;HPM_P2
2024/01/14 00:01:06;;;;;;;14.48;9.43;;;;;;;1.86;100.00;100528.19;10000088;29;20052;-73
2024/01/14 00:06:03;;;;;;;28.33;9.75;;;;;;;1.85;100.00;100542.72;9981648;29;20420;-73
2024/01/14 00:10:59;;;;;;;20.17;9.18;;;;;;;1.85;100.00;100534.63;9992907;29;20123;-73
2024/01/14 00:15:56;;;;;;;24.38;10.13;;;;;;;1.94;100.00;100532.22;9999895;29;20052;-73
2024/01/14 00:20:52;;;;;;;18.75;9.60;;;;;;;1.94;100.00;100518.75;9999437;29;20044;-73
2024/01/14 00:25:49;;;;;;;20.42;11.55;;;;;;;1.99;100.00;100536.84;9993365;29;20055;-73
2024/01/14 00:30:46;;;;;;;13.68;8.73;;;;;;;2.08;100.00;100540.63;10030323;29;20501;-74
2024/01/14 00:35:43;;;;;;;18.92;8.52;;;;;;;2.17;100.00;100557.94;9990097;29;20044;-73
2024/01/14 00:40:41;;;;;;;17.75;9.35;;;;;;;2.19;100.00;100558.47;9998189;29;20524;-73
2024/01/14 00:45:37;;;;;;;26.13;10.88;;;;;;;2.23;100.00;100564.97;9982851;29;20056;-74
2024/01/14 00:50:34;;;;;;;26.23;10.25;;;;;;;2.28;100.00;100574.97;9990085;29;20119;-73
2024/01/14 00:55:30;;;;;;;20.85;10.05;;;;;;;2.31;100.00;100571.72;9982968;29;20044;-74
2024/01/14 01:00:30;;;;;;;21.98;9.95;;;;;;;2.36;100.00;100565.53;9997374;29;20048;-74
2024/01/14 01:05:26;;;;;;;24.85;9.38;;;;;;;2.32;100.00;100567.94;9987989;29;20059;-73
2024/01/14 01:10:23;;;;;;;11.23;8.13;;;;;;;2.31;100.00;100572.53;9985365;29;20051;-73
2024/01/14 01:15:20;;;;;;;18.52;10.00;;;;;;;2.33;100.00;100563.38;9996209;29;20051;-74
2024/01/14 01:20:16;;;;;;;17.80;8.95;;;;;;;2.33;100.00;100557.97;9994286;29;20082;-74
2024/01/14 01:25:13;;;;;;;14.88;9.50;;;;;;;2.31;100.00;100547.44;9988640;29;20051;-74
2024/01/14 01:30:10;;;;;;;23.83;9.10;;;;;;;2.31;100.00;100550.94;9996792;29;20056;-74
2024/01/14 01:35:06;;;;;;;27.23;9.38;;;;;;;2.33;100.00;100555.28;9989058;29;20044;-74
2024/01/14 01:40:04;;;;;;;29.58;9.60;;;;;;;2.31;100.00;100545.53;9982768;29;20496;-74
2024/01/14 01:45:00;;;;;;;15.98;8.88;;;;;;;2.36;100.00;100570.94;9988504;29;20583;-74
2024/01/14 01:49:57;;;;;;;17.95;6.63;;;;;;;2.35;100.00;100582.81;9974510;29;20547;-74
2024/01/14 01:54:55;;;;;;;12.55;6.25;;;;;;;2.27;100.00;100584.94;9988610;29;20055;-74
2024/01/14 01:59:52;;;;;;;6.82;4.57;;;;;;;2.26;100.00;100602.19;9995878;29;20051;-74
2024/01/14 02:04:49;;;;;;;8.15;4.60;;;;;;;2.19;100.00;100598.94;9988215;29;20123;-74
2024/01/14 02:09:45;;;;;;;15.93;5.32;;;;;;;2.15;100.00;100594.34;9980521;29;20054;-74
2024/01/14 02:14:42;;;;;;;7.63;4.57;;;;;;;2.08;100.00;100610.75;9997174;29;20048;-74
2024/01/14 02:19:38;;;;;;;10.63;5.50;;;;;;;1.96;100.00;100585.91;9986401;29;20504;-74
2024/01/14 02:24:36;;;;;;;17.35;4.93;;;;;;;1.94;100.00;100588.06;9989122;29;20135;-74
2024/01/14 02:29:37;;;;;;;8.82;6.00;;;;;;;1.81;100.00;100584.78;9990801;29;20052;-74
2024/01/14 02:34:35;;;;;;;6.60;5.30;;;;;;;1.73;100.00;100577.19;9986013;29;20127;-74
2024/01/14 02:39:32;;;;;;;15.85;6.47;;;;;;;1.64;100.00;100584.13;9980852;29;20048;-73
2024/01/14 02:44:29;;;;;;;8.07;6.00;;;;;;;1.63;100.00;100572.56;9982660;29;20052;-72
2024/01/14 02:49:26;;;;;;;11.40;7.22;;;;;;;1.59;100.00;100567.94;9983280;29;20051;-75
2024/01/14 02:54:22;;;;;;;14.32;6.70;;;;;;;1.51;100.00;100555.78;9977220;29;20514;-74
2024/01/14 02:59:19;;;;;;;12.00;6.93;;;;;;;1.43;100.00;100556.25;10002765;29;20443;-74
2024/01/14 03:04:16;;;;;;;14.20;7.43;;;;;;;1.41;100.00;100548.44;9994256;29;20516;-74
2024/01/14 03:09:14;;;;;;;8.43;7.60;;;;;;;1.39;100.00;100537.13;9983067;29;20045;-74
2024/01/14 03:14:10;;;;;;;13.20;7.82;;;;;;;1.32;100.00;100530.34;9998849;29;20500;-74
2024/01/14 03:19:07;;;;;;;12.63;7.93;;;;;;;1.26;100.00;100519.53;10001603;29;20575;-74
2024/01/14 03:24:04;;;;;;;12.30;8.18;;;;;;;1.25;100.00;100533.25;9999179;29;20063;-74
2024/01/14 03:29:00;;;;;;;12.95;7.63;;;;;;;1.29;100.00;100526.28;9984848;29;20052;-74
2024/01/14 03:33:57;;;;;;;8.55;7.70;;;;;;;1.28;100.00;100532.75;9976527;29;20056;-74
2024/01/14 03:38:53;;;;;;;10.05;7.60;;;;;;;1.27;100.00;100526.53;9985735;29;20049;-74
2024/01/14 03:43:50;;;;;;;11.48;7.70;;;;;;;1.35;100.00;100538.72;9991033;29;20107;-74
2024/01/14 03:48:47;;;;;;;11.90;7.82;;;;;;;1.39;100.00;100534.44;10000861;29;20052;-74
2024/01/14 03:53:43;;;;;;;11.45;8.38;;;;;;;1.50;100.00;100529.09;10004380;29;20074;-74
2024/01/14 03:58:40;;;;;;;10.65;7.90;;;;;;;1.64;100.00;100530.22;9997262;29;20482;-74
2024/01/14 04:03:36;;;;;;;12.35;7.32;;;;;;;1.70;100.00;100534.59;10003329;29;20123;-74
2024/01/14 04:08:33;;;;;;;21.23;8.27;;;;;;;1.76;100.00;100536.22;9995682;29;20044;-73
2024/01/14 04:13:29;;;;;;;11.25;7.57;;;;;;;1.83;100.00;100531.41;10002272;29;20108;-74
2024/01/14 04:18:26;;;;;;;14.27;7.00;;;;;;;1.87;100.00;100529.78;9999944;29;20040;-74
2024/01/14 04:23:22;;;;;;;14.45;7.55;;;;;;;1.83;100.00;100523.31;10001108;29;20040;-74
2024/01/14 04:28:19;;;;;;;10.88;7.70;;;;;;;1.65;100.00;100526.47;10002011;29;20048;-74
2024/01/14 04:33:15;;;;;;;18.92;7.78;;;;;;;1.49;100.00;100517.50;10007065;29;20056;-74
2024/01/14 04:38:12;;;;;;;9.23;7.93;;;;;;;1.43;100.00;100519.34;9999041;29;20131;-74
2024/01/14 04:43:11;;;;;;;19.90;8.45;;;;;;;1.39;100.00;100522.81;9994427;29;20060;-74
2024/01/14 04:48:08;;;;;;;12.73;8.30;;;;;;;1.47;100.00;100520.47;9998739;29;20070;-74
2024/01/14 04:53:06;;;;;;;13.20;8.00;;;;;;;1.52;100.00;100516.16;9998264;29;20055;-74
2024/01/14 04:58:02;;;;;;;19.25;9.30;;;;;;;1.44;100.00;100514.78;9997016;29;20083;-73
2024/01/14 05:02:59;;;;;;;13.52;7.93;;;;;;;1.51;100.00;100509.97;9998004;29;20080;-73
2024/01/14 05:07:55;;;;;;;11.48;8.18;;;;;;;1.44;100.00;100510.22;9999761;29;20139;-73
2024/01/14 05:12:52;;;;;;;8.77;7.97;;;;;;;1.55;100.00;100512.94;9997717;29;20051;-73
2024/01/14 05:17:48;;;;;;;10.82;9.00;;;;;;;1.62;100.00;100517.00;9999987;29;20516;-74
2024/01/14 05:22:45;;;;;;;16.65;9.10;;;;;;;1.66;100.00;100517.31;9993249;29;20079;-73
2024/01/14 05:27:42;;;;;;;12.70;8.13;;;;;;;1.71;100.00;100511.94;10003450;29;20052;-73
2024/01/14 05:32:38;;;;;;;8.88;8.10;;;;;;;1.70;100.00;100512.22;9996019;29;20052;-74
2024/01/14 05:37:35;;;;;;;15.50;8.23;;;;;;;1.73;100.00;100501.69;9999421;29;20060;-74
2024/01/14 05:42:31;;;;;;;11.80;8.68;;;;;;;1.70;100.00;100501.44;9988654;29;20108;-74
2024/01/14 05:47:28;;;;;;;12.80;8.13;;;;;;;1.78;100.00;100499.00;10002820;29;20425;-74
2024/01/14 05:52:24;;;;;;;11.27;7.95;;;;;;;1.83;100.00;100490.97;10007669;29;20048;-73
2024/01/14 05:57:22;;;;;;;11.75;7.72;;;;;;;1.84;100.00;100489.88;9982139;29;20783;-73
2024/01/14 06:02:18;;;;;;;18.90;9.18;;;;;;;1.84;100.00;100486.38;9988176;29;20096;-73
2024/01/14 06:07:15;;;;;;;13.95;8.95;;;;;;;1.82;100.00;100489.34;9982895;29;21531;-73
2024/01/14 06:12:11;;;;;;;13.38;8.65;;;;;;;1.80;100.00;100480.69;9979941;29;20748;-74
2024/01/14 06:17:08;;;;;;;12.07;9.07;;;;;;;1.76;100.00;100476.91;9988763;29;20048;-74
2024/01/14 06:22:05;;;;;;;9.65;8.70;;;;;;;1.68;100.00;100466.66;9995559;29;20100;-73
2024/01/14 06:27:02;;;;;;;11.13;8.43;;;;;;;1.79;100.00;100472.88;9988976;29;20044;-73
2024/01/14 06:31:59;;;;;;;14.35;8.73;;;;;;;1.86;100.00;100474.25;9998183;29;20055;-73
2024/01/14 06:36:55;;;;;;;10.50;9.10;;;;;;;1.91;100.00;100467.25;9996114;29;20440;-74
2024/01/14 06:41:52;;;;;;;12.63;8.80;;;;;;;1.92;100.00;100460.78;9990743;29;20108;-73
2024/01/14 06:46:48;;;;;;;13.73;8.73;;;;;;;1.94;100.00;100475.63;9987658;29;20070;-73
2024/01/14 06:51:45;;;;;;;17.40;9.45;;;;;;;1.87;100.00;100462.38;9995680;29;20059;-73
2024/01/14 06:56:45;;;;;;;12.65;9.32;;;;;;;1.82;100.00;100456.97;9993851;29;20668;-73
2024/01/14 07:01:42;;;;;;;10.57;8.88;;;;;;;1.84;100.00;100459.41;10002679;29;20060;-73
2024/01/14 07:06:39;;;;;;;19.92;9.55;;;;;;;1.81;100.00;100466.16;9994704;29;20048;-73
2024/01/14 07:11:35;;;;;;;15.20;8.27;;;;;;;1.86;100.00;100459.97;9988036;29;20060;-73
2024/01/14 07:16:32;;;;;;;16.48;9.10;;;;;;;1.89;100.00;100457.53;10005688;29;20048;-73
2024/01/14 07:21:28;;;;;;;11.75;8.05;;;;;;;1.95;100.00;100460.25;10001271;29;20103;-74
2024/01/14 07:26:25;;;;;;;11.15;8.32;;;;;;;1.93;100.00;100462.38;10005758;29;20044;-73
2024/01/14 07:31:26;;;;;;;12.98;8.82;;;;;;;1.87;100.00;100465.06;9993100;29;20108;-73
2024/01/14 07:36:24;;;;;;;9.07;8.27;;;;;;;1.92;100.00;100471.56;10003335;29;20055;-73
2024/01/14 07:41:21;;;;;;;14.63;9.35;;;;;;;1.87;100.00;100475.84;9993450;29;20168;-73
2024/01/14 07:46:17;;;;;;;9.27;8.43;;;;;;;1.93;100.00;100473.16;9991038;29;20059;-73
2024/01/14 07:51:14;;;;;;;12.50;9.00;;;;;;;1.94;100.00;100485.59;9994512;29;20051;-74
2024/01/14 07:56:10;;;;;;;20.50;8.63;;;;;;;1.99;100.00;100469.41;9977536;29;20048;-74
2024/01/14 08:01:07;;;;;;;16.92;8.98;;;;;;;1.94;100.00;100472.13;9999580;29;20044;-74
2024/01/14 08:06:04;;;;;;;12.70;8.93;;;;;;;1.91;100.00;100469.97;10004152;29;20043;-73
2024/01/14 08:11:01;;;;;;;15.38;10.02;;;;;;;1.83;100.00;100469.41;10022256;29;20047;-74
2024/01/14 08:15:57;;;;;;;15.43;9.23;;;;;;;1.84;100.00;100460.22;9991960;29;20818;-74
2024/01/14 08:20:59;;;;;;;12.57;9.32;;;;;;;1.87;100.00;100465.06;9998845;29;20127;-73
2024/01/14 08:26:00;;;;;;;11.18;9.20;;;;;;;1.88;100.00;100453.22;9997586;29;20072;-73
2024/01/14 08:30:57;;;;;;;14.82;9.40;;;;;;;1.88;100.00;100450.53;9998340;29;20067;-72
2024/01/14 08:35:54;;;;;;;13.88;9.27;;;;;;;1.95;100.00;100452.97;9990636;29;20059;-72
2024/01/14 08:40:52;;;;;;;9.73;8.85;;;;;;;1.93;100.00;100446.22;9998612;29;20519;-72
2024/01/14 08:45:48;;;;;;;12.43;8.95;;;;;;;1.94;100.00;100454.03;9990738;29;20131;-72
2024/01/14 08:50:45;;;;;;;16.00;8.48;;;;;;;1.94;100.00;100450.53;9997188;29;20048;-72
2024/01/14 08:55:41;;;;;;;12.00;8.70;;;;;;;1.91;100.00;100459.16;9989783;29;20516;-73
2024/01/14 09:00:38;;;;;;;10.32;8.38;;;;;;;1.92;100.00;100463.47;9995404;29;20063;-72
2024/01/14 09:05:35;;;;;;;13.45;9.57;;;;;;;1.85;100.00;100451.03;9986928;29;20056;-72
2024/01/14 09:10:31;;;;;;;12.88;9.13;;;;;;;1.88;100.00;100460.50;9994995;29;20116;-73
2024/01/14 09:15:28;;;;;;;10.00;9.05;;;;;;;1.80;100.00;100459.13;9982885;29;20044;-73
2024/01/14 09:20:24;;;;;;;10.20;9.07;;;;;;;1.95;100.00;100454.84;9997532;29;20048;-72
2024/01/14 09:25:21;;;;;;;11.38;9.25;;;;;;;2.16;100.00;100459.22;9989304;29;20047;-71
2024/01/14 09:30:17;;;;;;;15.35;8.82;;;;;;;2.34;100.00;100468.66;9988834;29;20040;-73
2024/01/14 09:35:14;;;;;;;13.18;9.27;;;;;;;2.23;100.00;100456.25;9979449;29;20393;-73
2024/01/14 09:40:11;;;;;;;9.65;8.60;;;;;;;2.18;100.00;100465.16;9981530;29;20063;-72
2024/01/14 09:45:08;;;;;;;9.05;8.05;;;;;;;2.05;100.00;100438.69;9988734;29;20124;-73
2024/01/14 09:50:06;;;;;;;10.15;8.15;;;;;;;2.31;100.00;100451.13;10020005;29;20052;-73
2024/01/14 09:55:03;;;;;;;11.68;7.25;;;;;;;2.47;100.00;100446.53;10004173;29;20080;-72
2024/01/14 10:00:05;;;;;;;8.70;7.28;;;;;;;2.56;100.00;100459.50;9990526;29;20067;-72
2024/01/14 10:05:02;;;;;;;9.63;7.27;;;;;;;2.19;100.00;100461.38;9987706;29;20066;-72
2024/01/14 10:09:58;;;;;;;12.18;8.90;;;;;;;1.99;100.00;100439.75;10030397;29;20051;-73
2024/01/14 10:14:59;;;;;;;10.98;8.35;;;;;;;1.77;100.00;100434.59;10019255;29;20417;-73
2024/01/14 10:19:59;;;;;;;17.10;9.20;;;;;;;1.82;100.00;100418.44;10012393;29;20044;-72
2024/01/14 10:24:56;;;;;;;13.57;8.73;;;;;;;1.77;100.00;100404.94;10018840;29;20048;-73
2024/01/14 10:29:53;;;;;;;10.85;9.05;;;;;;;1.96;100.00;100391.75;10026348;29;20511;-73
2024/01/14 10:34:52;;;;;;;14.40;9.68;;;;;;;1.87;100.00;100384.19;10001052;29;20505;-73
2024/01/14 10:39:51;;;;;;;14.38;9.25;;;;;;;1.92;100.00;100369.09;10008998;29;20062;-73
2024/01/14 10:44:47;;;;;;;10.18;8.80;;;;;;;1.93;100.00;100354.53;9987751;29;20504;-73
2024/01/14 10:49:45;;;;;;;11.52;8.63;;;;;;;1.94;100.00;100340.00;10002116;29;20517;-73
2024/01/14 10:54:47;;;;;;;12.48;8.38;;;;;;;1.94;100.00;100334.59;9994667;29;20100;-72
2024/01/14 10:59:44;;;;;;;9.77;8.75;;;;;;;2.08;100.00;100335.66;10002011;29;20044;-73
2024/01/14 11:04:43;;;;;;;14.20;8.68;;;;;;;2.00;100.00;100318.16;9995287;29;20499;-73
2024/01/14 11:09:41;;;;;;;15.68;8.68;;;;;;;1.97;100.00;100312.47;10019700;29;20530;-73
2024/01/14 11:14:46;;;;;;;12.50;9.50;;;;;;;2.05;100.00;100310.06;10003889;29;20126;-72
2024/01/14 11:19:44;;;;;;;10.38;9.32;;;;;;;1.99;100.00;100304.94;9997964;29;20054;-72
2024/01/14 11:24:40;;;;;;;12.23;9.07;;;;;;;2.07;100.00;100307.09;9992014;29;20059;-73
2024/01/14 11:29:41;;;;;;;15.32;9.43;;;;;;;2.14;100.00;100307.63;9999479;29;20112;-72
2024/01/14 11:34:50;;;;;;;14.32;8.88;;;;;;;2.13;100.00;100289.00;9993112;29;20144;-72
2024/01/14 11:39:47;;;;;;;16.23;9.38;;;;;;;2.24;100.00;100279.81;10001129;29;20060;-73
2024/01/14 11:44:44;;;;;;;12.65;9.68;;;;;;;2.21;100.00;100280.38;9999393;29;20525;-72
2024/01/14 11:49:40;;;;;;;14.35;9.07;;;;;;;2.22;100.00;100266.59;9985095;29;20435;-72
2024/01/14 11:54:37;;;;;;;9.23;8.23;;;;;;;2.27;100.00;100242.31;9992404;29;20127;-72
2024/01/14 11:59:34;;;;;;;10.98;8.73;;;;;;;2.39;100.00;100243.88;9999958;29;20036;-73
2024/01/14 12:04:38;;;;;;;9.63;8.32;;;;;;;2.51;100.00;100233.63;9992822;29;20135;-73
2024/01/14 12:09:34;;;;;;;12.40;7.50;;;;;;;2.73;100.00;100231.34;9995265;29;20713;-73
2024/01/14 12:14:36;;;;;;;10.90;8.40;;;;;;;2.86;100.00;100227.25;9991510;29;20055;-73
2024/01/14 12:19:33;;;;;;;8.85;7.47;;;;;;;2.72;100.00;100220.84;9971479;29;20048;-72
2024/01/14 12:24:29;;;;;;;9.02;7.47;;;;;;;2.77;100.00;100222.72;9965796;29;20040;-72
2024/01/14 12:29:30;;;;;;;8.38;7.40;;;;;;;2.86;100.00;100204.84;9991130;29;20052;-72
2024/01/14 12:34:26;;;;;;;9.13;7.10;;;;;;;2.81;100.00;100204.84;9983120;29;20512;-72
2024/01/14 12:39:26;;;;;;;8.27;7.30;;;;;;;2.66;100.00;100174.16;9991042;29;20048;-72
2024/01/14 12:44:26;;;;;;;9.10;8.23;;;;;;;2.66;100.00;100168.75;9984116;29;20051;-72
2024/01/14 12:49:24;;;;;;;10.65;7.70;;;;;;;2.84;100.00;100158.41;9997999;29;20043;-72
2024/01/14 12:54:21;;;;;;;11.20;8.25;;;;;;;2.90;100.00;100151.88;9986895;29;20097;-72
2024/01/14 12:59:22;;;;;;;9.63;8.55;;;;;;;2.86;100.00;100145.44;9997766;29;20052;-72
2024/01/14 13:04:19;;;;;;;10.95;8.70;;;;;;;2.78;100.00;100135.22;9990483;29;20048;-72
2024/01/14 13:09:16;;;;;;;16.23;8.50;;;;;;;2.77;100.00;100139.00;9996970;29;20107;-72
2024/01/14 13:14:12;;;;;;;12.23;8.73;;;;;;;2.72;100.00;100129.84;10001109;29;20051;-72
2024/01/14 13:19:09;;;;;;;11.00;8.30;;;;;;;2.69;100.00;100116.94;9959205;29;20056;-72
2024/01/14 13:24:06;;;;;;;11.20;8.85;;;;;;;2.64;100.00;100111.53;9970594;29;20044;-73
2024/01/14 13:29:10;;;;;;;8.93;8.23;;;;;;;2.66;100.00;100109.38;9981209;29;20044;-73
2024/01/14 13:34:07;;;;;;;11.35;8.68;;;;;;;2.68;100.00;100084.81;9983471;29;20053;-72
2024/01/14 13:39:06;;;;;;;10.32;8.93;;;;;;;2.68;100.00;100088.31;9989065;29;20069;-73
2024/01/14 13:44:02;;;;;;;10.63;9.25;;;;;;;2.69;100.00;100087.22;9977931;29;20044;-73
2024/01/14 13:49:12;;;;;;;9.68;8.68;;;;;;;2.57;100.00;100078.66;9980407;29;20064;-72
2024/01/14 13:54:11;;;;;;;9.10;8.25;;;;;;;2.83;100.00;100051.47;9998092;29;20453;-72
2024/01/14 13:59:10;;;;;;;9.40;8.60;;;;;;;2.85;100.00;100049.31;10000402;29;20540;-73
2024/01/14 14:04:08;;;;;;;10.77;7.53;;;;;;;2.76;100.00;100042.91;10002011;29;20531;-73
2024/01/14 14:09:06;;;;;;;9.68;8.77;;;;;;;2.72;100.00;100048.88;9963202;29;20052;-72
2024/01/14 14:14:05;;;;;;;8.60;7.72;;;;;;;2.65;100.00;100048.38;10000645;29;20468;-73
2024/01/14 14:19:03;;;;;;;9.32;7.82;;;;;;;2.50;100.00;100035.00;9966660;29;20048;-72
2024/01/14 14:24:00;;;;;;;9.18;8.48;;;;;;;2.40;100.00;100024.28;10000716;29;20122;-72
2024/01/14 14:28:57;;;;;;;9.93;9.20;;;;;;;2.40;100.00;100025.06;9973078;29;20053;-73
2024/01/14 14:33:54;;;;;;;9.48;8.57;;;;;;;2.28;100.00;100009.25;9970146;29;20078;-72
2024/01/14 14:38:50;;;;;;;9.57;8.82;;;;;;;2.24;100.00;99989.31;9974301;29;20509;-73
2024/01/14 14:43:47;;;;;;;10.27;9.35;;;;;;;2.20;100.00;99973.94;10000867;29;20079;-72
2024/01/14 14:48:43;;;;;;;9.23;8.48;;;;;;;2.13;100.00;99963.47;9979621;29;20080;-72
2024/01/14 14:53:40;;;;;;;13.23;9.45;;;;;;;2.15;100.00;99969.41;9993782;29;20062;-73
2024/01/14 14:58:36;;;;;;;10.40;9.40;;;;;;;1.96;100.00;99950.38;9996883;29;20059;-72
2024/01/14 15:03:37;;;;;;;9.55;8.65;;;;;;;1.82;100.00;99949.38;9997939;29;20048;-72
2024/01/14 15:08:33;;;;;;;9.93;8.88;;;;;;;1.68;100.00;99933.03;10000201;29;20536;-72
2024/01/14 15:13:30;;;;;;;9.70;9.10;;;;;;;1.44;100.00;99925.59;9996234;29;20056;-72
2024/01/14 15:18:26;;;;;;;12.52;9.50;;;;;;;1.32;100.00;99906.22;9997894;29;20122;-73
2024/01/14 15:23:23;;;;;;;11.00;9.90;;;;;;;1.33;100.00;99897.09;9998036;29;20076;-72
2024/01/14 15:28:20;;;;;;;9.50;8.90;;;;;;;1.34;100.00;99884.41;9988470;29;20416;-73
2024/01/14 15:33:16;;;;;;;11.57;10.52;;;;;;;1.31;100.00;99869.63;9996787;29;20060;-72
2024/01/14 15:38:14;;;;;;;11.68;10.63;;;;;;;1.43;100.00;99853.94;9995785;29;20048;-72
2024/01/14 15:43:12;;;;;;;11.23;10.18;;;;;;;1.58;100.00;99841.44;9998237;29;20060;-73
2024/01/14 15:48:09;;;;;;;9.98;9.27;;;;;;;1.73;100.00;99837.88;9986572;29;20056;-72
2024/01/14 15:53:05;;;;;;;9.13;8.48;;;;;;;1.73;100.00;99827.88;9999972;29;20055;-72
2024/01/14 15:58:02;;;;;;;10.13;9.30;;;;;;;1.72;100.00;99820.91;9995307;29;20481;-73
2024/01/14 16:02:58;;;;;;;11.48;9.18;;;;;;;1.71;100.00;99819.25;9979198;29;20428;-72
2024/01/14 16:07:55;;;;;;;10.20;9.30;;;;;;;1.69;100.00;99821.44;9997707;29;20072;-73
2024/01/14 16:12:51;;;;;;;10.20;8.48;;;;;;;1.67;100.00;99804.72;9999583;29;20070;-73
2024/01/14 16:17:50;;;;;;;9.50;8.80;;;;;;;1.67;100.00;99807.44;10005783;29;20052;-73
2024/01/14 16:22:47;;;;;;;10.38;9.43;;;;;;;1.69;100.00;99783.72;9999328;29;20148;-73
2024/01/14 16:27:44;;;;;;;9.98;9.30;;;;;;;1.60;100.00;99775.44;9983612;29;20048;-73
2024/01/14 16:32:41;;;;;;;10.10;9.38;;;;;;;1.46;100.00;99764.50;9961019;29;20095;-73
2024/01/14 16:37:37;;;;;;;10.77;9.88;;;;;;;1.34;100.00;99760.53;9996167;29;20139;-73
2024/01/14 16:42:34;;;;;;;10.02;9.13;;;;;;;1.42;100.00;99744.59;9998689;29;20047;-73
2024/01/14 16:47:30;;;;;;;10.60;9.48;;;;;;;1.42;100.00;99747.28;9977138;29;20048;-73
2024/01/14 16:52:28;;;;;;;10.57;9.77;;;;;;;1.46;100.00;99737.56;9968364;29;20052;-73
2024/01/14 16:57:24;;;;;;;12.45;9.70;;;;;;;1.42;100.00;99731.13;9982898;29;20049;-72
2024/01/14 17:02:21;;;;;;;10.93;9.88;;;;;;;1.39;100.00;99725.47;9987313;29;20721;-73
2024/01/14 17:07:18;;;;;;;10.73;9.48;;;;;;;1.41;100.00;99728.69;9984828;29;20127;-73
2024/01/14 17:12:14;;;;;;;12.05;9.82;;;;;;;1.44;100.00;99710.09;9987977;29;20052;-73
2024/01/14 17:17:11;;;;;;;11.50;10.43;;;;;;;1.50;100.00;99701.97;9987818;29;20424;-73
2024/01/14 17:22:09;;;;;;;10.85;9.85;;;;;;;1.54;100.00;99690.34;9989130;29;20087;-73
2024/01/14 17:27:07;;;;;;;10.00;9.30;;;;;;;1.58;100.00;99686.00;9989509;29;20051;-73
2024/01/14 17:32:03;;;;;;;10.82;9.68;;;;;;;1.60;100.00;99683.00;9981599;29;20060;-73
2024/01/14 17:37:00;;;;;;;10.73;9.77;;;;;;;1.62;100.00;99672.75;9958099;29;20056;-73
2024/01/14 17:41:56;;;;;;;11.93;9.95;;;;;;;1.67;100.00;99667.31;9987142;29;20052;-72
2024/01/14 17:46:53;;;;;;;9.55;8.65;;;;;;;1.62;100.00;99672.75;9985661;29;20096;-73
2024/01/14 17:51:49;;;;;;;9.77;8.88;;;;;;;1.35;100.00;99668.69;9981754;29;20505;-73
2024/01/14 17:56:46;;;;;;;9.65;8.65;;;;;;;1.34;100.00;99658.97;10000501;29;20076;-73
2024/01/14 18:01:42;;;;;;;9.60;8.80;;;;;;;1.35;100.00;99644.44;9996458;29;20615;-73
2024/01/14 18:06:39;;;;;;;9.02;8.23;;;;;;;1.37;100.00;99623.41;9987916;29;20481;-73
2024/01/14 18:11:36;;;;;;;8.95;8.30;;;;;;;1.36;100.00;99621.81;9995618;29;20048;-73
2024/01/14 18:16:32;;;;;;;9.50;8.70;;;;;;;1.37;100.00;99615.34;9987390;29;20493;-73
2024/01/14 18:21:30;;;;;;;9.40;8.60;;;;;;;1.40;100.00;99604.00;10015173;29;20047;-72
2024/01/14 18:26:28;;;;;;;9.73;8.75;;;;;;;1.31;100.00;99589.53;9988062;29;20055;-72
2024/01/14 18:31:24;;;;;;;15.55;8.75;;;;;;;1.34;100.00;99583.56;9988219;29;20052;-73
2024/01/14 18:36:23;;;;;;;9.77;8.98;;;;;;;1.34;100.00;99578.19;9994862;29;20103;-73
2024/01/14 18:41:20;;;;;;;9.35;8.63;;;;;;;1.36;100.00;99570.63;9995369;29;20060;-73
2024/01/14 18:46:16;;;;;;;11.88;8.95;;;;;;;1.38;100.00;99578.44;10000335;29;20060;-72
2024/01/14 18:51:13;;;;;;;9.73;8.90;;;;;;;1.36;100.00;99570.63;9997914;29;20072;-72
2024/01/14 18:56:10;;;;;;;10.05;9.07;;;;;;;1.31;100.00;99559.91;9987606;29;20063;-73
2024/01/14 19:01:07;;;;;;;11.70;9.40;;;;;;;1.31;100.00;99551.84;10002181;29;20048;-72
2024/01/14 19:06:06;;;;;;;9.20;8.60;;;;;;;1.29;100.00;99532.47;9993717;29;20091;-72
2024/01/14 19:11:02;;;;;;;9.20;8.30;;;;;;;1.21;100.00;99519.63;9994030;29;20048;-72
2024/01/14 19:15:59;;;;;;;9.70;8.55;;;;;;;1.28;100.00;99514.72;10000304;29;20064;-72
2024/01/14 19:20:56;;;;;;;10.82;9.57;;;;;;;1.31;100.00;99491.78;9998705;29;20079;-73
2024/01/14 19:25:53;;;;;;;11.75;8.50;;;;;;;1.29;100.00;99489.38;9993271;29;20103;-73
2024/01/14 19:30:50;;;;;;;9.52;8.70;;;;;;;1.30;100.00;99488.28;9995392;29;20124;-74
2024/01/14 19:35:46;;;;;;;9.15;8.23;;;;;;;1.32;100.00;99494.19;9993515;29;20539;-73
2024/01/14 19:40:43;;;;;;;9.40;8.40;;;;;;;1.30;100.00;99480.22;9984714;29;20132;-73
2024/01/14 19:45:40;;;;;;;8.13;7.40;;;;;;;1.27;100.00;99473.50;9986309;29;20428;-73
2024/01/14 19:50:37;;;;;;;10.95;8.07;;;;;;;1.21;100.00;99465.78;10005412;29;20413;-73
2024/01/14 19:55:37;;;;;;;9.25;8.43;;;;;;;1.21;100.00;99444.25;9998181;29;20428;-73
2024/01/14 20:00:33;;;;;;;9.02;8.13;;;;;;;1.21;100.00;99444.25;9992030;29;20513;-73
2024/01/14 20:05:31;;;;;;;9.35;8.23;;;;;;;1.19;100.00;99435.63;9991882;29;20044;-74
2024/01/14 20:10:27;;;;;;;9.80;8.80;;;;;;;1.13;100.00;99431.38;10000024;29;20048;-72
2024/01/14 20:15:24;;;;;;;9.00;8.20;;;;;;;1.13;100.00;99428.69;9998534;29;20052;-73
2024/01/14 20:20:20;;;;;;;8.90;7.88;;;;;;;1.05;100.00;99420.16;9992130;29;20072;-73
2024/01/14 20:25:17;;;;;;;8.55;7.60;;;;;;;1.09;100.00;99419.59;9980133;29;20055;-73
2024/01/14 20:30:14;;;;;;;11.35;7.72;;;;;;;1.07;100.00;99384.06;9993352;29;20056;-73
2024/01/14 20:35:12;;;;;;;8.85;8.15;;;;;;;1.08;100.00;99381.09;9990996;29;20390;-73
2024/01/14 20:40:13;;;;;;;9.05;8.10;;;;;;;1.11;100.00;99371.66;9997671;29;20096;-73
2024/01/14 20:45:10;;;;;;;8.95;7.97;;;;;;;0.99;100.00;99372.84;9996973;29;20056;-73
2024/01/14 20:50:07;;;;;;;11.15;8.13;;;;;;;0.98;100.00;99365.88;9998674;29;20076;-73
2024/01/14 20:55:04;;;;;;;8.40;7.60;;;;;;;0.97;100.00;99380.41;9988672;29;20063;-73
2024/01/14 21:00:00;;;;;;;8.80;7.82;;;;;;;1.00;100.00;99354.84;9991077;29;20505;-73
2024/01/14 21:04:57;;;;;;;8.65;7.90;;;;;;;1.00;100.00;99347.56;9989502;29;20083;-72
2024/01/14 21:09:55;;;;;;;8.32;7.65;;;;;;;0.92;100.00;99344.69;9989901;29;20564;-73
2024/01/14 21:14:52;;;;;;;8.13;7.35;;;;;;;0.93;100.00;99347.09;9988319;29;20559;-73
2024/01/14 21:19:48;;;;;;;8.68;7.88;;;;;;;0.95;100.00;99322.56;9996939;29;20548;-73
2024/01/14 21:24:45;;;;;;;9.02;8.43;;;;;;;0.88;100.00;99339.06;9998055;29;20040;-73
2024/01/14 21:29:42;;;;;;;9.55;8.65;;;;;;;0.87;100.00;99310.56;9974357;29;20051;-73
2024/01/14 21:34:38;;;;;;;11.63;7.72;;;;;;;0.83;100.00;99306.84;9981464;29;20425;-73
2024/01/14 21:39:36;;;;;;;9.15;8.25;;;;;;;0.48;100.00;99314.22;9996291;29;20060;-73
2024/01/14 21:44:33;;;;;;;8.18;7.57;;;;;;;0.13;100.00;99308.13;10003133;29;20083;-73
2024/01/14 21:49:30;;;;;;;8.25;7.65;;;;;;;-0.11;100.00;99291.94;10016171;29;20534;-72
2024/01/14 21:54:28;;;;;;;8.05;7.47;;;;;;;0.01;100.00;99288.09;9982081;29;20082;-72
2024/01/14 21:59:25;;;;;;;7.40;6.80;;;;;;;0.08;100.00;99294.72;9992945;29;20474;-71
2024/01/14 22:04:24;;;;;;;7.65;7.05;;;;;;;0.18;100.00;99283.88;10003365;29;20108;-72
2024/01/14 22:09:21;;;;;;;7.88;7.28;;;;;;;0.20;100.00;99275.53;9966599;29;20471;-72
2024/01/14 22:14:18;;;;;;;8.10;7.50;;;;;;;0.20;100.00;99276.31;10003178;29;20048;-71
2024/01/14 22:19:14;;;;;;;12.98;8.10;;;;;;;0.14;100.00;99266.72;9998781;29;20540;-72
2024/01/14 22:24:12;;;;;;;8.27;7.57;;;;;;;0.12;100.00;99258.16;9995470;29;20420;-72
2024/01/14 22:29:25;;;;;;;13.85;8.68;;;;;;;0.17;100.00;99266.16;10003824;29;20062;-72
2024/01/14 22:34:22;;;;;;;14.98;8.82;;;;;;;0.25;100.00;99256.66;9994310;29;20048;-72
2024/01/14 22:39:20;;;;;;;9.15;8.20;;;;;;;0.26;100.00;99257.47;9964909;29;20512;-72
2024/01/14 22:44:17;;;;;;;14.88;8.70;;;;;;;0.31;100.00;99265.50;9982840;29;20155;-72
2024/01/14 22:49:13;;;;;;;8.65;7.82;;;;;;;0.30;100.00;99256.63;10002912;29;20048;-72
2024/01/14 22:54:11;;;;;;;9.38;8.32;;;;;;;0.17;100.00;99255.41;9985216;29;21744;-73